createdAt,value
2023-04-16T00:00:15.073Z,94829.00
2023-04-16T00:01:15.129Z,94831.00
2023-04-16T00:02:15.299Z,94831.00
2023-04-16T00:03:15.360Z,94831.00
2023-04-16T00:04:15.755Z,94833.00
2023-04-16T00:05:15.708Z,94833.00
2023-04-16T00:06:15.690Z,94836.00
2023-04-16T00:07:15.695Z,94838.00
2023-04-16T00:08:15.707Z,94838.00
2023-04-16T00:09:15.709Z,94838.00
2023-04-16T00:10:15.707Z,94840.00
2023-04-16T00:11:15.727Z,94844.00
2023-04-16T00:12:16.366Z,94844.00
2023-04-16T00:13:15.774Z,94848.00
2023-04-16T00:14:15.793Z,94848.00
2023-04-16T00:15:15.833Z,94846.00
2023-04-16T00:16:15.891Z,94852.00
2023-04-16T00:17:15.875Z,94852.00
2023-04-16T00:18:15.889Z,94852.00
2023-04-16T00:19:15.896Z,94854.00
2023-04-16T00:20:15.912Z,94856.00
2023-04-16T00:21:15.934Z,94858.00
2023-04-16T00:22:15.925Z,94858.00
2023-04-16T00:23:15.943Z,94856.00
2023-04-16T00:24:15.943Z,94858.00
2023-04-16T00:25:15.955Z,94858.00
2023-04-16T00:26:15.956Z,94856.00
2023-04-16T00:27:15.964Z,94858.00
2023-04-16T00:28:16.014Z,94856.00
2023-04-16T00:29:15.968Z,94858.00
2023-04-16T00:30:15.992Z,94856.00
2023-04-16T00:31:16.393Z,94856.00
2023-04-16T00:32:15.993Z,94854.00
2023-04-16T00:33:15.997Z,94852.00
2023-04-16T00:34:15.984Z,94850.00
2023-04-16T00:35:16.008Z,94852.00
2023-04-16T00:36:16.003Z,94850.00
2023-04-16T00:37:15.999Z,94854.00
2023-04-16T00:38:16.006Z,94854.00
2023-04-16T00:39:15.997Z,94852.00
2023-04-16T00:40:16.009Z,94856.00
2023-04-16T00:41:16.009Z,94856.00
2023-04-16T00:42:16.020Z,94856.00
2023-04-16T00:43:16.009Z,94858.00
2023-04-16T00:44:16.039Z,94856.00
2023-04-16T00:45:16.039Z,94858.00
2023-04-16T00:46:16.082Z,94856.00
2023-04-16T00:47:16.065Z,94862.00
2023-04-16T00:48:16.044Z,94862.00
2023-04-16T00:49:16.063Z,94862.00
2023-04-16T00:50:16.049Z,94858.00
2023-04-16T00:51:16.064Z,94858.00
2023-04-16T00:52:16.051Z,94856.00
2023-04-16T00:53:16.064Z,94856.00
2023-04-16T00:54:16.091Z,94854.00
2023-04-16T00:55:16.095Z,94856.00
2023-04-16T00:56:17.481Z,94854.00
2023-04-16T00:57:16.331Z,94856.00
2023-04-16T00:58:16.327Z,94858.00
2023-04-16T00:59:16.329Z,94858.00
2023-04-16T01:00:16.359Z,94858.00
2023-04-16T01:01:16.414Z,94858.00
2023-04-16T01:02:16.421Z,94856.00
2023-04-16T01:03:16.463Z,94858.00
2023-04-16T01:04:16.451Z,94854.00
2023-04-16T01:05:16.330Z,94856.00
2023-04-16T01:06:16.330Z,94858.00
2023-04-16T01:07:16.341Z,94860.00
2023-04-16T01:08:16.348Z,94858.00
2023-04-16T01:09:16.351Z,94860.00
2023-04-16T01:10:16.355Z,94860.00
2023-04-16T01:11:16.372Z,94860.00
2023-04-16T01:12:16.367Z,94860.00
2023-04-16T01:13:16.365Z,94862.00
2023-04-16T01:14:16.378Z,94860.00
2023-04-16T01:15:16.401Z,94862.00
2023-04-16T01:16:16.427Z,94864.00
2023-04-16T01:17:16.410Z,94864.00
2023-04-16T01:18:16.404Z,94862.00
2023-04-16T01:19:16.402Z,94862.00
2023-04-16T01:20:16.422Z,94864.00
2023-04-16T01:21:16.404Z,94864.00
2023-04-16T01:22:16.426Z,94864.00
2023-04-16T01:23:16.448Z,94864.00
2023-04-16T01:24:16.421Z,94864.00
2023-04-16T01:25:16.419Z,94864.00
2023-04-16T01:26:16.430Z,94864.00
2023-04-16T01:27:16.423Z,94864.00
2023-04-16T01:28:16.440Z,94864.00
2023-04-16T01:29:16.429Z,94864.00
2023-04-16T01:30:16.430Z,94866.00
2023-04-16T01:31:16.451Z,94864.00
2023-04-16T01:32:16.460Z,94862.00
2023-04-16T01:33:16.456Z,94866.00
2023-04-16T01:34:16.441Z,94860.00
2023-04-16T01:35:16.447Z,94864.00
2023-04-16T01:36:16.454Z,94864.00
2023-04-16T01:37:16.454Z,94866.00
2023-04-16T01:38:16.460Z,94870.00
2023-04-16T01:39:16.583Z,94870.00
2023-04-16T01:40:16.466Z,94870.00
2023-04-16T01:41:16.463Z,94868.00
2023-04-16T01:42:16.471Z,94866.00
2023-04-16T01:43:16.460Z,94866.00
2023-04-16T01:44:16.461Z,94866.00
2023-04-16T01:45:16.463Z,94866.00
2023-04-16T01:46:16.591Z,94868.00
2023-04-16T01:47:16.496Z,94870.00
2023-04-16T01:48:16.485Z,94870.00
2023-04-16T01:49:16.452Z,94870.00
2023-04-16T01:50:16.452Z,94870.00
2023-04-16T01:51:16.448Z,94872.00
2023-04-16T01:52:16.450Z,94872.00
2023-04-16T01:53:16.449Z,94872.00
2023-04-16T01:54:16.453Z,94876.00
2023-04-16T01:55:16.443Z,94874.00
2023-04-16T01:56:16.446Z,94876.00
2023-04-16T01:57:16.441Z,94874.00
2023-04-16T01:58:16.456Z,94874.00
2023-04-16T01:59:16.508Z,94874.00
2023-04-16T02:00:16.441Z,94872.00
2023-04-16T02:01:16.523Z,94874.00
2023-04-16T02:02:16.597Z,94874.00
2023-04-16T02:03:16.596Z,94874.00
2023-04-16T02:04:16.558Z,94874.00
2023-04-16T02:05:16.442Z,94872.00
2023-04-16T02:06:16.462Z,94874.00
2023-04-16T02:07:16.440Z,94874.00
2023-04-16T02:08:16.442Z,94876.00
2023-04-16T02:09:16.439Z,94874.00
2023-04-16T02:10:16.460Z,94876.00
2023-04-16T02:11:16.438Z,94874.00
2023-04-16T02:12:16.442Z,94874.00
2023-04-16T02:13:16.440Z,94874.00
2023-04-16T02:14:16.443Z,94876.00
2023-04-16T02:15:16.438Z,94876.00
2023-04-16T02:16:16.461Z,94874.00
2023-04-16T02:17:16.453Z,94876.00
2023-04-16T02:18:16.442Z,94874.00
2023-04-16T02:19:16.449Z,94876.00
2023-04-16T02:20:16.481Z,94876.00
2023-04-16T02:21:16.460Z,94878.00
2023-04-16T02:22:16.478Z,94876.00
2023-04-16T02:23:16.476Z,94876.00
2023-04-16T02:24:17.375Z,94878.00
2023-04-16T02:25:16.454Z,94878.00
2023-04-16T02:26:16.462Z,94876.00
2023-04-16T02:27:16.459Z,94876.00
2023-04-16T02:28:16.464Z,94878.00
2023-04-16T02:29:16.530Z,94878.00
2023-04-16T02:30:16.483Z,94878.00
2023-04-16T02:31:16.509Z,94880.00
2023-04-16T02:32:16.593Z,94880.00
2023-04-16T02:33:16.471Z,94878.00
2023-04-16T02:34:16.473Z,94882.00
2023-04-16T02:35:16.479Z,94883.00
2023-04-16T02:36:16.513Z,94885.00
2023-04-16T02:37:16.481Z,94883.00
2023-04-16T02:38:16.484Z,94883.00
2023-04-16T02:39:16.484Z,94885.00
2023-04-16T02:40:16.486Z,94883.00
2023-04-16T02:41:16.474Z,94885.00
2023-04-16T02:42:16.491Z,94885.00
2023-04-16T02:43:16.484Z,94887.00
2023-04-16T02:44:16.481Z,94887.00
2023-04-16T02:45:16.485Z,94889.00
2023-04-16T02:46:16.531Z,94897.00
2023-04-16T02:47:16.490Z,94899.00
2023-04-16T02:48:16.495Z,94899.00
2023-04-16T02:49:16.485Z,94897.00
2023-04-16T02:50:16.488Z,94899.00
2023-04-16T02:51:16.490Z,94897.00
2023-04-16T02:52:16.555Z,94897.00
2023-04-16T02:53:16.500Z,94901.00
2023-04-16T02:54:16.502Z,94899.00
2023-04-16T02:55:16.512Z,94903.00
2023-04-16T02:56:16.502Z,94901.00
2023-04-16T02:57:16.504Z,94905.00
2023-04-16T02:58:16.511Z,94903.00
2023-04-16T02:59:16.513Z,94903.00
2023-04-16T03:00:16.527Z,94901.00
2023-04-16T03:01:16.549Z,94901.00
2023-04-16T03:02:16.572Z,94901.00
2023-04-16T03:03:16.569Z,94899.00
2023-04-16T03:04:16.575Z,94901.00
2023-04-16T03:05:16.571Z,94897.00
2023-04-16T03:06:17.393Z,94899.00
2023-04-16T03:07:16.569Z,94899.00
2023-04-16T03:08:16.606Z,94903.00
2023-04-16T03:09:16.582Z,94899.00
2023-04-16T03:10:16.592Z,94901.00
2023-04-16T03:11:16.597Z,94901.00
2023-04-16T03:12:17.383Z,94899.00
2023-04-16T03:13:16.598Z,94899.00
2023-04-16T03:14:16.594Z,94899.00
2023-04-16T03:15:16.607Z,94901.00
2023-04-16T03:16:16.683Z,94901.00
2023-04-16T03:17:16.760Z,94897.00
2023-04-16T03:18:16.633Z,94901.00
2023-04-16T03:19:16.621Z,94897.00
2023-04-16T03:20:16.627Z,94903.00
2023-04-16T03:21:16.653Z,94899.00
2023-04-16T03:22:16.636Z,94903.00
2023-04-16T03:23:16.664Z,94903.00
2023-04-16T03:24:16.677Z,94899.00
2023-04-16T03:25:16.646Z,94901.00
2023-04-16T03:26:16.664Z,94903.00
2023-04-16T03:27:16.655Z,94903.00
2023-04-16T03:28:16.665Z,94907.00
2023-04-16T03:29:16.681Z,94905.00
2023-04-16T03:30:16.678Z,94905.00
2023-04-16T03:31:16.733Z,94905.00
2023-04-16T03:32:16.699Z,94905.00
2023-04-16T03:33:16.693Z,94907.00
2023-04-16T03:34:17.398Z,94903.00
2023-04-16T03:35:16.707Z,94903.00
2023-04-16T03:36:16.702Z,94903.00
2023-04-16T03:37:16.715Z,94903.00
2023-04-16T03:38:16.725Z,94901.00
2023-04-16T03:39:16.724Z,94901.00
2023-04-16T03:40:16.761Z,94903.00
2023-04-16T03:41:16.729Z,94899.00
2023-04-16T03:42:16.729Z,94903.00
2023-04-16T03:43:16.730Z,94903.00
2023-04-16T03:44:16.733Z,94903.00
2023-04-16T03:45:16.747Z,94905.00
2023-04-16T03:46:16.776Z,94907.00
2023-04-16T03:47:16.782Z,94911.00
2023-04-16T03:48:16.757Z,94913.00
2023-04-16T03:49:16.762Z,94911.00
2023-04-16T03:50:16.768Z,94915.00
2023-04-16T03:51:16.771Z,94917.00
2023-04-16T03:52:16.782Z,94917.00
2023-04-16T03:53:16.805Z,94917.00
2023-04-16T03:54:16.786Z,94917.00
2023-04-16T03:55:16.784Z,94917.00
2023-04-16T03:56:16.817Z,94917.00
2023-04-16T03:57:16.801Z,94921.00
2023-04-16T03:58:16.825Z,94921.00
2023-04-16T03:59:16.827Z,94923.00
2023-04-16T04:00:16.832Z,94927.00
2023-04-16T04:01:16.861Z,94929.00
2023-04-16T04:02:16.955Z,94935.00
2023-04-16T04:03:17.250Z,94935.00
2023-04-16T04:04:16.955Z,94938.00
2023-04-16T04:05:16.887Z,94940.00
2023-04-16T04:06:17.427Z,94942.00
2023-04-16T04:07:16.913Z,94944.00
2023-04-16T04:08:16.917Z,94946.00
2023-04-16T04:09:16.937Z,94948.00
2023-04-16T04:10:16.972Z,94948.00
2023-04-16T04:11:16.948Z,94948.00
2023-04-16T04:12:16.985Z,94948.00
2023-04-16T04:13:16.968Z,94948.00
2023-04-16T04:14:16.979Z,94948.00
2023-04-16T04:15:16.999Z,94950.00
2023-04-16T04:16:17.054Z,94948.00
2023-04-16T04:17:17.014Z,94950.00
2023-04-16T04:18:17.930Z,94948.00
2023-04-16T04:19:17.029Z,94948.00
2023-04-16T04:20:17.037Z,94950.00
2023-04-16T04:21:17.052Z,94950.00
2023-04-16T04:22:17.065Z,94950.00
2023-04-16T04:23:17.422Z,94950.00
2023-04-16T04:24:17.079Z,94954.00
2023-04-16T04:25:17.085Z,94956.00
2023-04-16T04:26:17.127Z,94954.00
2023-04-16T04:27:17.099Z,94954.00
2023-04-16T04:28:17.156Z,94954.00
2023-04-16T04:29:17.123Z,94956.00
2023-04-16T04:30:17.141Z,94958.00
2023-04-16T04:31:17.172Z,94954.00
2023-04-16T04:32:17.152Z,94956.00
2023-04-16T04:33:17.165Z,94958.00
2023-04-16T04:34:17.182Z,94954.00
2023-04-16T04:35:17.189Z,94958.00
2023-04-16T04:36:17.197Z,94960.00
2023-04-16T04:37:17.206Z,94960.00
2023-04-16T04:38:17.237Z,94964.00
2023-04-16T04:39:17.211Z,94962.00
2023-04-16T04:40:17.278Z,94962.00
2023-04-16T04:41:17.231Z,94964.00
2023-04-16T04:42:17.243Z,94966.00
2023-04-16T04:43:17.428Z,94968.00
2023-04-16T04:44:17.283Z,94970.00
2023-04-16T04:45:17.320Z,94968.00
2023-04-16T04:46:17.319Z,94968.00
2023-04-16T04:47:17.282Z,94974.00
2023-04-16T04:48:17.428Z,94976.00
2023-04-16T04:49:17.308Z,94974.00
2023-04-16T04:50:17.318Z,94974.00
2023-04-16T04:51:17.327Z,94978.00
2023-04-16T04:52:17.339Z,94978.00
2023-04-16T04:53:20.117Z,94980.00
2023-04-16T04:54:17.442Z,94976.00
2023-04-16T04:55:17.344Z,94976.00
2023-04-16T04:56:17.330Z,94980.00
2023-04-16T04:57:17.329Z,94976.00
2023-04-16T04:58:17.323Z,94980.00
2023-04-16T04:59:17.328Z,94980.00
2023-04-16T05:00:17.334Z,94980.00
2023-04-16T05:01:17.342Z,94980.00
2023-04-16T05:02:17.331Z,94982.00
2023-04-16T05:03:17.356Z,94982.00
2023-04-16T05:04:17.387Z,94982.00
2023-04-16T05:05:17.348Z,94983.00
2023-04-16T05:06:17.263Z,94983.00
2023-04-16T05:07:17.259Z,94983.00
2023-04-16T05:08:17.252Z,94983.00
2023-04-16T05:09:17.240Z,94985.00
2023-04-16T05:10:17.232Z,94985.00
2023-04-16T05:11:17.224Z,94985.00
2023-04-16T05:12:17.227Z,94985.00
2023-04-16T05:13:17.937Z,94987.00
2023-04-16T05:14:17.206Z,94987.00
2023-04-16T05:15:17.208Z,94987.00
2023-04-16T05:16:17.278Z,94987.00
2023-04-16T05:17:17.188Z,94987.00
2023-04-16T05:18:17.182Z,94989.00
2023-04-16T05:19:17.172Z,94991.00
2023-04-16T05:20:17.171Z,94993.00
2023-04-16T05:21:17.941Z,94993.00
2023-04-16T05:22:17.154Z,94995.00
2023-04-16T05:23:17.151Z,94997.00
2023-04-16T05:24:17.130Z,94999.00
2023-04-16T05:25:17.127Z,95001.00
2023-04-16T05:26:17.124Z,95005.00
2023-04-16T05:27:17.120Z,95007.00
2023-04-16T05:28:17.107Z,95009.00
2023-04-16T05:29:17.112Z,95009.00
2023-04-16T05:30:17.109Z,95009.00
2023-04-16T05:31:17.155Z,95011.00
2023-04-16T05:32:17.142Z,95011.00
2023-04-16T05:33:17.079Z,95011.00
2023-04-16T05:34:17.085Z,95009.00
2023-04-16T05:35:17.602Z,95013.00
2023-04-16T05:36:17.062Z,95013.00
2023-04-16T05:37:17.056Z,95013.00
2023-04-16T05:38:17.044Z,95013.00
2023-04-16T05:39:17.037Z,95013.00
2023-04-16T05:40:17.053Z,95013.00
2023-04-16T05:41:17.023Z,95011.00
2023-04-16T05:42:17.023Z,95013.00
2023-04-16T05:43:17.012Z,95013.00
2023-04-16T05:44:17.006Z,95015.00
2023-04-16T05:45:17.003Z,95013.00
2023-04-16T05:46:17.030Z,95013.00
2023-04-16T05:47:17.020Z,95019.00
2023-04-16T05:48:17.008Z,95019.00
2023-04-16T05:49:16.973Z,95015.00
2023-04-16T05:50:16.968Z,95021.00
2023-04-16T05:51:16.957Z,95019.00
2023-04-16T05:52:17.036Z,95025.00
2023-04-16T05:53:16.945Z,95023.00
2023-04-16T05:54:16.938Z,95025.00
2023-04-16T05:55:16.934Z,95025.00
2023-04-16T05:56:16.917Z,95029.00
2023-04-16T05:57:16.938Z,95029.00
2023-04-16T05:58:16.920Z,95029.00
2023-04-16T05:59:16.973Z,95029.00
2023-04-16T06:00:16.901Z,95029.00
2023-04-16T06:01:16.886Z,95029.00
2023-04-16T06:02:16.972Z,95029.00
2023-04-16T06:03:17.025Z,95030.00
2023-04-16T06:04:17.007Z,95030.00
2023-04-16T06:05:16.967Z,95030.00
2023-04-16T06:06:16.859Z,95030.00
2023-04-16T06:07:16.857Z,95032.00
2023-04-16T06:08:16.840Z,95034.00
2023-04-16T06:09:16.825Z,95034.00
2023-04-16T06:10:16.829Z,95034.00
2023-04-16T06:11:16.820Z,95030.00
2023-04-16T06:12:16.812Z,95032.00
2023-04-16T06:13:16.810Z,95029.00
2023-04-16T06:14:16.816Z,95029.00
2023-04-16T06:15:16.801Z,95025.00
2023-04-16T06:16:16.831Z,95025.00
2023-04-16T06:17:16.814Z,95023.00
2023-04-16T06:18:16.818Z,95023.00
2023-04-16T06:19:16.826Z,95021.00
2023-04-16T06:20:16.852Z,95021.00
2023-04-16T06:21:16.832Z,95021.00
2023-04-16T06:22:31.459Z,95021.00
2023-04-16T06:23:34.455Z,95021.00
2023-04-16T06:24:35.450Z,95015.00
2023-04-16T06:25:36.124Z,95015.00
2023-04-16T06:26:35.429Z,95015.00
2023-04-16T06:27:35.470Z,95011.00
2023-04-16T06:28:35.431Z,95017.00
2023-04-16T06:29:41.049Z,95017.00
2023-04-16T06:30:35.407Z,95013.00
2023-04-16T06:31:35.463Z,95015.00
2023-04-16T06:32:35.433Z,95017.00
2023-04-16T06:33:35.386Z,95019.00
2023-04-16T06:34:35.374Z,95019.00
2023-04-16T06:35:35.389Z,95019.00
2023-04-16T06:36:35.366Z,95023.00
2023-04-16T06:37:35.353Z,95023.00
2023-04-16T06:38:35.343Z,95025.00
2023-04-16T06:39:35.330Z,95021.00
2023-04-16T06:40:35.342Z,95021.00
2023-04-16T06:41:35.312Z,95019.00
2023-04-16T06:42:35.343Z,95021.00
2023-04-16T06:43:35.317Z,95023.00
2023-04-16T06:44:35.298Z,95025.00
2023-04-16T06:45:35.296Z,95023.00
2023-04-16T06:46:35.384Z,95025.00
2023-04-16T06:47:35.328Z,95025.00
2023-04-16T06:48:35.264Z,95025.00
2023-04-16T06:49:35.263Z,95029.00
2023-04-16T06:50:35.259Z,95029.00
2023-04-16T06:51:35.274Z,95030.00
2023-04-16T06:52:35.235Z,95030.00
2023-04-16T06:53:35.244Z,95032.00
2023-04-16T06:54:35.221Z,95030.00
2023-04-16T06:55:35.220Z,95032.00
2023-04-16T06:56:35.205Z,95030.00
2023-04-16T06:57:37.370Z,95030.00
2023-04-16T06:58:35.198Z,95030.00
2023-04-16T06:59:35.193Z,95032.00
2023-04-16T07:00:35.212Z,95032.00
2023-04-16T07:01:35.250Z,95034.00
2023-04-16T07:02:35.427Z,95036.00
2023-04-16T07:03:35.344Z,95036.00
2023-04-16T07:04:35.155Z,95034.00
2023-04-16T07:05:35.152Z,95038.00
2023-04-16T07:06:35.140Z,95038.00
2023-04-16T07:07:35.153Z,95040.00
2023-04-16T07:08:35.115Z,95042.00
2023-04-16T07:09:35.116Z,95042.00
2023-04-16T07:10:35.106Z,95044.00
2023-04-16T07:11:35.101Z,95044.00
2023-04-16T07:12:35.090Z,95044.00
2023-04-16T07:13:35.083Z,95044.00
2023-04-16T07:14:35.075Z,95042.00
2023-04-16T07:15:35.065Z,95042.00
2023-04-16T07:16:35.072Z,95046.00
2023-04-16T07:17:35.091Z,95042.00
2023-04-16T07:18:35.048Z,95046.00
2023-04-16T07:19:35.032Z,95046.00
2023-04-16T07:20:35.031Z,95042.00
2023-04-16T07:21:35.015Z,95048.00
2023-04-16T07:22:35.006Z,95050.00
2023-04-16T07:23:35.180Z,95048.00
2023-04-16T07:24:34.996Z,95050.00
2023-04-16T07:25:34.984Z,95054.00
2023-04-16T07:26:34.981Z,95054.00
2023-04-16T07:27:34.963Z,95054.00
2023-04-16T07:28:34.968Z,95054.00
2023-04-16T07:29:34.949Z,95052.00
2023-04-16T07:30:34.955Z,95054.00
2023-04-16T07:31:34.966Z,95054.00
2023-04-16T07:32:34.970Z,95050.00
2023-04-16T07:33:34.917Z,95054.00
2023-04-16T07:34:34.908Z,95056.00
2023-04-16T07:35:34.906Z,95056.00
2023-04-16T07:36:34.894Z,95054.00
2023-04-16T07:37:34.897Z,95052.00
2023-04-16T07:38:34.877Z,95056.00
2023-04-16T07:39:34.892Z,95056.00
2023-04-16T07:40:34.860Z,95056.00
2023-04-16T07:41:34.863Z,95052.00
2023-04-16T07:42:34.864Z,95054.00
2023-04-16T07:43:34.847Z,95052.00
2023-04-16T07:44:34.826Z,95054.00
2023-04-16T07:45:34.868Z,95052.00
2023-04-16T07:46:45.464Z,95052.00
2023-04-16T07:47:34.846Z,95052.00
2023-04-16T07:48:34.810Z,95054.00
2023-04-16T07:49:34.804Z,95050.00
2023-04-16T07:50:34.788Z,95050.00
2023-04-16T07:51:34.776Z,95050.00
2023-04-16T07:52:34.783Z,95050.00
2023-04-16T07:53:34.766Z,95052.00
2023-04-16T07:54:35.662Z,95056.00
2023-04-16T07:55:34.772Z,95056.00
2023-04-16T07:56:34.755Z,95056.00
2023-04-16T07:57:35.664Z,95056.00
2023-04-16T07:58:34.723Z,95054.00
2023-04-16T07:59:34.720Z,95056.00
2023-04-16T08:00:34.733Z,95056.00
2023-04-16T08:01:34.704Z,95058.00
2023-04-16T08:02:34.886Z,95060.00
2023-04-16T08:03:35.029Z,95060.00
2023-04-16T08:04:34.823Z,95062.00
2023-04-16T08:05:34.689Z,95062.00
2023-04-16T08:06:34.669Z,95066.00
2023-04-16T08:07:34.953Z,95066.00
2023-04-16T08:08:34.656Z,95064.00
2023-04-16T08:09:34.656Z,95064.00
2023-04-16T08:10:34.648Z,95066.00
2023-04-16T08:11:34.659Z,95070.00
2023-04-16T08:12:34.622Z,95070.00
2023-04-16T08:13:34.621Z,95072.00
2023-04-16T08:14:34.612Z,95072.00
2023-04-16T08:15:34.631Z,95070.00
2023-04-16T08:16:34.596Z,95072.00
2023-04-16T08:17:34.627Z,95074.00
2023-04-16T08:18:34.583Z,95072.00
2023-04-16T08:19:34.574Z,95072.00
2023-04-16T08:20:34.569Z,95076.00
2023-04-16T08:21:34.556Z,95074.00
2023-04-16T08:22:34.551Z,95076.00
2023-04-16T08:23:34.539Z,95076.00
2023-04-16T08:24:34.534Z,95076.00
2023-04-16T08:25:34.538Z,95076.00
2023-04-16T08:26:34.537Z,95077.00
2023-04-16T08:27:34.710Z,95079.00
2023-04-16T08:28:34.517Z,95079.00
2023-04-16T08:29:34.502Z,95079.00
2023-04-16T08:30:34.505Z,95079.00
2023-04-16T08:31:34.543Z,95079.00
2023-04-16T08:32:34.554Z,95079.00
2023-04-16T08:33:34.481Z,95079.00
2023-04-16T08:34:34.494Z,95081.00
2023-04-16T08:35:34.461Z,95079.00
2023-04-16T08:36:34.445Z,95085.00
2023-04-16T08:37:34.447Z,95081.00
2023-04-16T08:38:34.439Z,95087.00
2023-04-16T08:39:34.436Z,95087.00
2023-04-16T08:40:35.182Z,95087.00
2023-04-16T08:41:34.423Z,95087.00
2023-04-16T08:42:34.441Z,95081.00
2023-04-16T08:43:34.437Z,95087.00
2023-04-16T08:44:34.400Z,95089.00
2023-04-16T08:45:34.383Z,95087.00
2023-04-16T08:46:34.415Z,95087.00
2023-04-16T08:47:34.457Z,95089.00
2023-04-16T08:48:34.372Z,95091.00
2023-04-16T08:49:35.179Z,95091.00
2023-04-16T08:50:35.184Z,95087.00
2023-04-16T08:51:34.349Z,95085.00
2023-04-16T08:52:34.341Z,95089.00
2023-04-16T08:53:34.330Z,95089.00
2023-04-16T08:54:34.318Z,95087.00
2023-04-16T08:55:34.307Z,95087.00
2023-04-16T08:56:34.305Z,95089.00
2023-04-16T08:57:34.299Z,95089.00
2023-04-16T08:58:34.290Z,95087.00
2023-04-16T08:59:35.209Z,95087.00
2023-04-16T09:00:34.272Z,95091.00
2023-04-16T09:01:35.214Z,95091.00
2023-04-16T09:02:34.402Z,95093.00
2023-04-16T09:03:36.307Z,95091.00
2023-04-16T09:04:34.351Z,95091.00
2023-04-16T09:05:34.235Z,95093.00
2023-04-16T09:06:34.233Z,95091.00
2023-04-16T09:07:35.188Z,95091.00
2023-04-16T09:08:34.703Z,95093.00
2023-04-16T09:09:35.188Z,95093.00
2023-04-16T09:10:34.203Z,95093.00
2023-04-16T09:11:34.198Z,95095.00
2023-04-16T09:12:34.187Z,95095.00
2023-04-16T09:13:34.186Z,95097.00
2023-04-16T09:14:34.183Z,95095.00
2023-04-16T09:15:35.160Z,95099.00
2023-04-16T09:16:34.204Z,95099.00
2023-04-16T09:17:36.737Z,95099.00
2023-04-16T09:18:34.148Z,95097.00
2023-04-16T09:19:34.131Z,95097.00
2023-04-16T09:20:36.694Z,95097.00
2023-04-16T09:21:34.177Z,95099.00
2023-04-16T09:22:34.120Z,95099.00
2023-04-16T09:23:34.107Z,95097.00
2023-04-16T09:24:34.109Z,95097.00
2023-04-16T09:25:34.102Z,95097.00
2023-04-16T09:26:34.081Z,95095.00
2023-04-16T09:27:34.083Z,95093.00
2023-04-16T09:28:34.068Z,95091.00
2023-04-16T09:29:34.079Z,95093.00
2023-04-16T09:30:34.062Z,95093.00
2023-04-16T09:31:34.107Z,95091.00
2023-04-16T09:32:34.068Z,95093.00
2023-04-16T09:33:35.052Z,95093.00
2023-04-16T09:34:34.032Z,95091.00
2023-04-16T09:35:34.020Z,95091.00
2023-04-16T09:36:34.013Z,95089.00
2023-04-16T09:37:34.013Z,95091.00
2023-04-16T09:38:34.000Z,95091.00
2023-04-16T09:39:33.987Z,95093.00
2023-04-16T09:40:33.997Z,95093.00
2023-04-16T09:41:33.981Z,95091.00
2023-04-16T09:42:33.977Z,95091.00
2023-04-16T09:43:33.969Z,95091.00
2023-04-16T09:44:33.952Z,95091.00
2023-04-16T09:45:34.099Z,95091.00
2023-04-16T09:46:33.950Z,95089.00
2023-04-16T09:47:33.983Z,95087.00
2023-04-16T09:48:33.954Z,95089.00
2023-04-16T09:49:33.928Z,95087.00
2023-04-16T09:50:33.932Z,95087.00
2023-04-16T09:51:33.924Z,95089.00
2023-04-16T09:52:40.707Z,95089.00
2023-04-16T09:53:34.134Z,95087.00
2023-04-16T09:54:34.186Z,95087.00
2023-04-16T09:55:35.216Z,95087.00
2023-04-16T09:56:34.307Z,95085.00
2023-04-16T09:57:34.364Z,95089.00
2023-04-16T09:58:34.390Z,95089.00
2023-04-16T09:59:34.408Z,95087.00
2023-04-16T10:00:34.383Z,95089.00
2023-04-16T10:01:34.440Z,95091.00
2023-04-16T10:02:34.464Z,95091.00
2023-04-16T10:03:34.864Z,95093.00
2023-04-16T10:04:34.428Z,95091.00
2023-04-16T10:05:34.420Z,95093.00
2023-04-16T10:06:34.450Z,95089.00
2023-04-16T10:07:34.419Z,95089.00
2023-04-16T10:08:34.427Z,95091.00
2023-04-16T10:09:34.429Z,95087.00
2023-04-16T10:10:34.428Z,95087.00
2023-04-16T10:11:34.739Z,95087.00
2023-04-16T10:12:34.420Z,95087.00
2023-04-16T10:13:34.443Z,95089.00
2023-04-16T10:14:34.450Z,95087.00
2023-04-16T10:15:35.220Z,95089.00
2023-04-16T10:16:34.533Z,95089.00
2023-04-16T10:17:34.493Z,95087.00
2023-04-16T10:18:34.473Z,95087.00
2023-04-16T10:19:34.497Z,95091.00
2023-04-16T10:20:34.479Z,95089.00
2023-04-16T10:21:34.656Z,95091.00
2023-04-16T10:22:34.534Z,95091.00
2023-04-16T10:23:34.565Z,95089.00
2023-04-16T10:24:34.595Z,95087.00
2023-04-16T10:25:34.726Z,95091.00
2023-04-16T10:26:34.625Z,95089.00
2023-04-16T10:27:34.633Z,95087.00
2023-04-16T10:28:34.674Z,95091.00
2023-04-16T10:29:34.692Z,95091.00
2023-04-16T10:30:34.724Z,95091.00
2023-04-16T10:31:34.689Z,95089.00
2023-04-16T10:32:34.740Z,95091.00
2023-04-16T10:33:34.710Z,95091.00
2023-04-16T10:34:34.728Z,95091.00
2023-04-16T10:35:34.793Z,95091.00
2023-04-16T10:36:34.770Z,95093.00
2023-04-16T10:37:34.794Z,95091.00
2023-04-16T10:38:34.829Z,95091.00
2023-04-16T10:39:34.852Z,95093.00
2023-04-16T10:40:34.996Z,95091.00
2023-04-16T10:41:34.860Z,95093.00
2023-04-16T10:42:34.877Z,95091.00
2023-04-16T10:43:34.890Z,95091.00
2023-04-16T10:44:34.921Z,95089.00
2023-04-16T10:45:34.914Z,95091.00
2023-04-16T10:46:35.027Z,95091.00
2023-04-16T10:47:34.996Z,95089.00
2023-04-16T10:48:46.505Z,95093.00
2023-04-16T10:49:34.974Z,95089.00
2023-04-16T10:50:34.974Z,95091.00
2023-04-16T10:51:34.991Z,95091.00
2023-04-16T10:52:34.954Z,95089.00
2023-04-16T10:53:34.949Z,95089.00
2023-04-16T10:54:34.934Z,95091.00
2023-04-16T10:55:34.932Z,95091.00
2023-04-16T10:56:35.256Z,95091.00
2023-04-16T10:57:34.909Z,95091.00
2023-04-16T10:58:35.009Z,95091.00
2023-04-16T10:59:34.899Z,95091.00
2023-04-16T11:00:34.892Z,95091.00
2023-04-16T11:01:34.937Z,95093.00
2023-04-16T11:02:35.132Z,95091.00
2023-04-16T11:03:34.981Z,95093.00
2023-04-16T11:04:34.920Z,95091.00
2023-04-16T11:05:34.858Z,95091.00
2023-04-16T11:06:34.853Z,95093.00
2023-04-16T11:07:34.867Z,95091.00
2023-04-16T11:08:41.274Z,95091.00
2023-04-16T11:09:34.828Z,95093.00
2023-04-16T11:10:34.822Z,95091.00
2023-04-16T11:11:34.811Z,95093.00
2023-04-16T11:12:34.807Z,95093.00
2023-04-16T11:13:34.800Z,95093.00
2023-04-16T11:14:34.797Z,95091.00
2023-04-16T11:15:34.790Z,95091.00
2023-04-16T11:16:34.785Z,95095.00
2023-04-16T11:17:34.789Z,95091.00
2023-04-16T11:18:34.769Z,95091.00
2023-04-16T11:19:34.752Z,95089.00
2023-04-16T11:20:34.744Z,95095.00
2023-04-16T11:21:34.737Z,95093.00
2023-04-16T11:22:34.733Z,95093.00
2023-04-16T11:23:34.757Z,95091.00
2023-04-16T11:24:34.717Z,95089.00
2023-04-16T11:25:34.719Z,95089.00
2023-04-16T11:26:34.700Z,95089.00
2023-04-16T11:27:34.696Z,95091.00
2023-04-16T11:28:34.703Z,95089.00
2023-04-16T11:29:34.680Z,95089.00
2023-04-16T11:30:34.714Z,95087.00
2023-04-16T11:31:34.732Z,95087.00
2023-04-16T11:32:34.689Z,95089.00
2023-04-16T11:33:34.654Z,95089.00
2023-04-16T11:34:34.651Z,95087.00
2023-04-16T11:35:34.638Z,95089.00
2023-04-16T11:36:34.635Z,95089.00
2023-04-16T11:37:34.647Z,95089.00
2023-04-16T11:38:34.622Z,95087.00
2023-04-16T11:39:34.636Z,95089.00
2023-04-16T11:40:34.601Z,95091.00
2023-04-16T11:41:34.596Z,95089.00
2023-04-16T11:42:34.638Z,95091.00
2023-04-16T11:43:34.586Z,95093.00
2023-04-16T11:44:34.579Z,95091.00